createdAt,value
2022-11-20T00:04:34.212Z,14.43
2022-11-20T00:09:37.418Z,14.68
2022-11-20T00:14:42.519Z,14.57
2022-11-20T00:19:45.539Z,14.62
2022-11-20T00:24:49.679Z,14.60
2022-11-20T00:29:53.257Z,14.51
2022-11-20T00:34:57.240Z,14.44
2022-11-20T00:40:00.705Z,14.59
2022-11-20T00:45:04.225Z,14.37
2022-11-20T00:50:08.112Z,14.37
2022-11-20T00:55:11.573Z,14.26
2022-11-20T01:00:15.198Z,14.30
2022-11-20T01:05:18.175Z,14.26
2022-11-20T01:10:21.689Z,14.12
2022-11-20T01:15:24.742Z,14.08
2022-11-20T01:20:27.730Z,13.99
2022-11-20T01:25:31.724Z,14.21
2022-11-20T01:30:34.918Z,14.04
2022-11-20T01:35:38.792Z,14.02
2022-11-20T01:40:41.803Z,14.02
2022-11-20T01:46:08.473Z,14.18
2022-11-20T01:51:38.140Z,13.82
2022-11-20T01:56:44.817Z,13.59
2022-11-20T02:01:48.560Z,13.66
2022-11-20T02:06:55.987Z,13.42
2022-11-20T02:12:00.689Z,13.28
2022-11-20T02:17:04.372Z,13.14
2022-11-20T02:22:16.050Z,13.30
2022-11-20T02:27:19.545Z,12.98
2022-11-20T02:32:28.420Z,12.80
2022-11-20T02:37:35.916Z,12.69
2022-11-20T02:42:39.216Z,12.55
2022-11-20T02:47:42.175Z,12.52
2022-11-20T02:52:45.390Z,12.37
2022-11-20T02:57:48.468Z,12.22
2022-11-20T03:02:51.577Z,12.34
2022-11-20T03:07:55.075Z,12.02
2022-11-20T03:12:58.398Z,11.83
2022-11-20T03:18:01.508Z,11.49
2022-11-20T03:23:04.437Z,11.02
2022-11-20T03:28:08.902Z,10.47
2022-11-20T03:33:12.238Z,10.08
2022-11-20T03:38:15.161Z,9.72
2022-11-20T03:43:18.668Z,9.52
2022-11-20T03:48:22.135Z,9.33
2022-11-20T03:53:25.083Z,9.12
2022-11-20T03:58:28.115Z,9.12
2022-11-20T04:03:31.993Z,9.14
2022-11-20T04:08:35.213Z,9.07
2022-11-20T04:13:38.954Z,9.02
2022-11-20T04:18:41.933Z,8.98
2022-11-20T04:23:44.915Z,8.88
2022-11-20T04:28:48.398Z,8.86
2022-11-20T04:33:51.911Z,8.78
2022-11-20T04:38:57.608Z,8.65
2022-11-20T04:44:05.541Z,8.60
2022-11-20T04:49:08.979Z,8.57
2022-11-20T04:54:13.022Z,8.64
2022-11-20T04:59:16.011Z,8.60
2022-11-20T05:04:19.629Z,8.51
2022-11-20T05:09:22.904Z,8.51
2022-11-20T05:14:26.113Z,8.58
2022-11-20T05:19:29.441Z,8.61
2022-11-20T05:24:32.852Z,8.69
2022-11-20T05:29:35.868Z,8.71
2022-11-20T05:34:39.133Z,8.71
2022-11-20T05:39:42.074Z,8.87
2022-11-20T05:44:45.527Z,8.98
2022-11-20T05:49:48.495Z,9.08
2022-11-20T05:54:51.912Z,9.24
2022-11-20T05:59:55.437Z,9.66
2022-11-20T06:04:58.657Z,10.39
2022-11-20T06:10:02.029Z,10.81
2022-11-20T06:15:07.432Z,11.09
2022-11-20T06:20:11.124Z,11.18
2022-11-20T06:25:16.908Z,11.41
2022-11-20T06:30:19.971Z,11.55
2022-11-20T06:35:23.565Z,11.82
2022-11-20T06:40:27.680Z,12.05
2022-11-20T06:45:31.710Z,12.28
2022-11-20T06:50:53.466Z,12.40
2022-11-20T06:56:00.438Z,12.26
2022-11-20T07:01:09.090Z,12.37
2022-11-20T07:06:12.320Z,12.35
2022-11-20T07:11:16.091Z,12.39
2022-11-20T07:16:19.626Z,12.46
2022-11-20T07:21:24.744Z,12.37
2022-11-20T07:26:28.121Z,12.23
2022-11-20T07:31:31.239Z,12.10
2022-11-20T07:36:34.514Z,12.03
2022-11-20T07:41:38.652Z,11.91
2022-11-20T07:46:41.770Z,11.96
2022-11-20T07:51:47.905Z,12.05
2022-11-20T07:56:53.430Z,12.09
2022-11-20T08:01:56.743Z,12.03
2022-11-20T08:07:00.743Z,12.03
2022-11-20T08:18:02.021Z,10.69
2022-11-20T08:23:08.987Z,9.91
2022-11-20T08:28:20.274Z,9.55
2022-11-20T08:33:25.314Z,9.51
2022-11-20T08:38:28.477Z,9.45
2022-11-20T08:43:31.566Z,9.24
2022-11-20T08:48:34.661Z,9.31
2022-11-20T08:53:37.776Z,9.20
2022-11-20T08:59:09.994Z,9.23
2022-11-20T09:04:06.203Z,9.34
2022-11-20T09:09:09.347Z,9.53
2022-11-20T09:14:12.665Z,9.25
2022-11-20T09:24:39.359Z,8.82
2022-11-20T09:29:43.215Z,9.53
2022-11-20T09:34:46.227Z,10.38
2022-11-20T09:39:50.071Z,10.22
2022-11-20T09:45:11.739Z,10.04
2022-11-20T09:50:25.077Z,10.20
2022-11-20T09:55:32.363Z,9.93
2022-11-20T10:00:38.179Z,9.88
2022-11-20T10:05:47.117Z,10.77
2022-11-20T10:11:19.509Z,12.83
2022-11-20T10:16:44.547Z,12.98
2022-11-20T10:22:00.291Z,13.37
2022-11-20T10:27:41.024Z,13.67
2022-11-20T10:32:49.328Z,12.65
2022-11-20T10:37:59.820Z,13.70
2022-11-20T10:43:09.543Z,13.40
2022-11-20T10:48:16.510Z,12.47
2022-11-20T10:53:54.479Z,12.69
2022-11-20T10:59:24.896Z,12.21
2022-11-20T11:04:34.031Z,12.72
2022-11-20T11:09:45.192Z,12.77
2022-11-20T11:14:58.912Z,12.77
2022-11-20T11:20:24.188Z,13.07
2022-11-20T11:25:30.299Z,13.37
2022-11-20T11:30:44.175Z,13.29
2022-11-20T11:35:51.706Z,13.68
2022-11-20T11:40:56.548Z,13.46
2022-11-20T11:46:00.158Z,12.63
2022-11-20T11:51:03.279Z,12.13
2022-11-20T11:56:15.129Z,11.72
2022-11-20T12:01:42.873Z,12.19
2022-11-20T12:06:52.530Z,12.43
2022-11-20T12:12:10.290Z,12.17
2022-11-20T12:17:15.916Z,12.16
2022-11-20T12:22:42.563Z,12.68
2022-11-20T12:27:57.670Z,13.00
2022-11-20T12:33:35.316Z,13.23
2022-11-20T12:38:38.129Z,14.67
2022-11-20T12:44:22.923Z,15.42
2022-11-20T12:49:44.923Z,14.57
2022-11-20T12:55:12.441Z,14.98
2022-11-20T13:00:23.864Z,14.68
2022-11-20T13:06:05.334Z,14.05
2022-11-20T13:11:27.203Z,14.29
2022-11-20T13:16:55.298Z,13.94
2022-11-20T13:21:58.576Z,13.12
2022-11-20T13:27:10.970Z,12.18
2022-11-20T13:32:21.520Z,11.54
2022-11-20T13:37:34.188Z,11.03
2022-11-20T13:43:00.020Z,10.87
2022-11-20T13:48:06.690Z,10.87
2022-11-20T13:53:18.446Z,12.09
2022-11-20T13:59:04.959Z,11.84
2022-11-20T14:04:10.639Z,11.40
2022-11-20T14:09:25.925Z,10.89
2022-11-20T14:14:31.735Z,10.71
2022-11-20T14:19:35.086Z,10.89
2022-11-20T14:24:38.844Z,11.67
2022-11-20T14:29:44.047Z,12.00
2022-11-20T14:34:50.920Z,11.22
2022-11-20T14:40:00.316Z,11.04
2022-11-20T14:45:04.080Z,10.73
2022-11-20T14:50:19.760Z,10.50
2022-11-20T14:55:35.232Z,10.50
2022-11-20T15:00:38.753Z,10.32
2022-11-20T15:05:50.895Z,10.12
2022-11-20T15:10:55.091Z,9.98
2022-11-20T15:16:01.490Z,10.04
2022-11-20T15:21:10.716Z,9.91
2022-11-20T15:26:20.040Z,9.66
2022-11-20T15:31:25.807Z,9.31
2022-11-20T15:36:29.315Z,9.30
2022-11-20T15:41:32.273Z,9.16
2022-11-20T15:46:41.269Z,9.20
2022-11-20T15:51:50.022Z,8.99
2022-11-20T15:56:55.814Z,8.90
2022-11-20T16:02:00.361Z,8.99
2022-11-20T16:09:33.714Z,9.04
2022-11-20T16:14:56.258Z,9.07
2022-11-20T16:20:00.800Z,9.01
2022-11-20T16:25:05.759Z,9.04
2022-11-20T16:30:10.426Z,9.06
2022-11-20T16:35:14.600Z,9.19
2022-11-20T16:40:18.350Z,9.19
2022-11-20T16:45:27.869Z,9.18
2022-11-20T16:50:34.442Z,9.29
2022-11-20T16:55:38.442Z,9.18
2022-11-20T17:00:48.395Z,9.11
2022-11-20T17:05:54.435Z,8.64
2022-11-20T17:11:06.436Z,8.59
2022-11-20T17:16:12.871Z,8.55
2022-11-20T17:21:17.214Z,8.38
2022-11-20T17:26:23.654Z,8.31
2022-11-20T17:31:28.260Z,8.13
2022-11-20T17:36:32.819Z,8.00
2022-11-20T17:41:35.976Z,7.90
2022-11-20T17:46:40.398Z,7.67
2022-11-20T17:51:43.960Z,7.31
2022-11-20T17:57:06.882Z,7.05
2022-11-20T18:02:14.060Z,6.98
2022-11-20T18:07:18.128Z,6.90
2022-11-20T18:12:21.650Z,7.10
2022-11-20T18:17:26.104Z,6.83
2022-11-20T18:22:29.676Z,6.91
2022-11-20T18:27:33.728Z,6.67
2022-11-20T18:32:38.303Z,6.57
2022-11-20T18:37:42.475Z,7.19
2022-11-20T18:43:05.833Z,8.14
2022-11-20T18:48:09.677Z,7.85
2022-11-20T18:53:12.738Z,8.09
2022-11-20T18:58:16.825Z,8.06
2022-11-20T19:03:20.495Z,7.80
2022-11-20T19:08:24.629Z,7.68
2022-11-20T19:13:31.521Z,7.53
2022-11-20T19:18:34.815Z,7.48
2022-11-20T19:23:39.002Z,7.55
2022-11-20T19:28:42.213Z,7.38
2022-11-20T19:33:46.377Z,7.34
2022-11-20T19:38:50.868Z,6.84
2022-11-20T19:43:54.495Z,6.74
2022-11-20T19:48:58.453Z,6.88
2022-11-20T19:54:02.518Z,7.54
2022-11-20T19:59:06.627Z,8.38
2022-11-20T20:04:09.789Z,8.50
2022-11-20T20:09:14.008Z,8.07
2022-11-20T20:14:18.556Z,8.08
2022-11-20T20:19:22.739Z,7.76
2022-11-20T20:24:26.456Z,7.71
2022-11-20T20:29:29.962Z,7.54
2022-11-20T20:34:33.741Z,7.34
2022-11-20T20:39:37.650Z,7.59
2022-11-20T20:45:01.411Z,7.91
2022-11-20T20:50:06.882Z,8.05
2022-11-20T20:55:11.229Z,7.87
2022-11-20T21:00:16.013Z,7.53
2022-11-20T21:05:19.405Z,7.24
2022-11-20T21:10:23.955Z,7.07
2022-11-20T21:15:27.611Z,7.01
2022-11-20T21:20:49.706Z,7.13
2022-11-20T21:25:52.875Z,7.24
2022-11-20T21:31:08.285Z,7.26
2022-11-20T21:36:13.616Z,6.91
2022-11-20T21:41:18.422Z,6.61
2022-11-20T21:46:21.508Z,6.50
2022-11-20T21:51:27.010Z,6.39
2022-11-20T21:56:30.822Z,6.21
2022-11-20T22:01:34.549Z,6.10
2022-11-20T22:06:38.069Z,6.01
2022-11-20T22:11:41.960Z,5.87
2022-11-20T22:16:45.008Z,5.98
2022-11-20T22:21:48.131Z,5.82
2022-11-20T22:26:51.195Z,5.84
2022-11-20T22:31:54.982Z,6.03
2022-11-20T22:36:58.537Z,5.87
2022-11-20T22:42:02.052Z,5.68
2022-11-20T22:47:11.254Z,5.48
2022-11-20T22:52:15.103Z,5.63
2022-11-20T22:57:18.228Z,5.96
2022-11-20T23:02:21.658Z,6.36
2022-11-20T23:07:25.204Z,7.35
2022-11-20T23:12:28.328Z,7.76
2022-11-20T23:17:31.378Z,7.94
2022-11-20T23:22:34.700Z,8.30
2022-11-20T23:27:38.208Z,8.55
2022-11-20T23:32:41.566Z,8.78
2022-11-20T23:37:44.890Z,8.82
2022-11-20T23:43:07.538Z,8.83
2022-11-20T23:48:11.012Z,8.99
2022-11-20T23:53:15.113Z,8.56
2022-11-20T23:58:19.816Z,7.72
